Time;durP1;ratioP1;P1;durP2;ratioP2;P2;SDS_P1;SDS_P2;PMS_P1;PMS_P2;Temp;Humidity;BMP_temperature;BMP_pressure;BME280_temperature;BME280_humidity;BME280_pressure;Samples;Min_cycle;Max_cycle;Signal;HPM_P1;HPM_P2
2021/12/14 00:00:29;;;;;;;19.30;9.35;;;10.50;99.90;;;;;;5096262;28;20525;-73
2021/12/14 00:02:56;;;;;;;20.55;9.88;;;10.50;99.90;;;;;;5092830;28;20020;-72
2021/12/14 00:05:25;;;;;;;17.10;9.00;;;10.40;99.90;;;;;;5058841;28;20436;-72
2021/12/14 00:07:51;;;;;;;22.80;10.38;;;10.40;99.90;;;;;;5055661;28;20079;-73
2021/12/14 00:13:47;;;;;;;20.48;8.95;;;10.40;99.90;;;;;;5058082;28;20469;-72
2021/12/14 00:16:02;;;;;;;23.02;10.18;;;10.40;99.90;;;;;;5049733;28;20040;-72
2021/12/14 00:18:28;;;;;;;20.35;9.43;;;10.40;99.90;;;;;;5056035;28;20369;-72
2021/12/14 00:20:59;;;;;;;22.92;9.82;;;10.40;99.90;;;;;;5057321;28;20044;-72
2021/12/14 00:26:13;;;;;;;25.95;11.25;;;10.40;99.90;;;;;;5055114;28;20064;-72
2021/12/14 00:28:39;;;;;;;24.38;11.70;;;10.30;99.90;;;;;;5059901;28;20457;-72
2021/12/14 00:31:10;;;;;;;22.50;10.23;;;10.30;99.90;;;;;;5072957;28;20021;-72
2021/12/14 00:33:38;;;;;;;24.33;11.55;;;10.30;99.90;;;;;;5074862;28;20041;-72
2021/12/14 00:36:07;;;;;;;24.65;11.57;;;10.40;99.90;;;;;;5071611;28;20395;-72
2021/12/14 00:38:35;;;;;;;22.05;10.43;;;10.40;99.90;;;;;;5070691;28;20030;-72
2021/12/14 00:41:09;;;;;;;21.30;10.40;;;10.30;99.90;;;;;;5055538;28;20108;-72
2021/12/14 00:43:35;;;;;;;24.85;12.32;;;10.30;99.90;;;;;;5041284;28;20507;-72
2021/12/14 00:46:02;;;;;;;26.80;12.32;;;10.30;99.90;;;;;;5055003;28;20028;-72
2021/12/14 00:48:29;;;;;;;26.00;12.30;;;10.20;99.90;;;;;;5067782;28;20502;-72
2021/12/14 00:50:58;;;;;;;25.23;12.30;;;10.30;99.90;;;;;;5063956;28;20047;-74
2021/12/14 00:53:25;;;;;;;24.67;12.00;;;10.30;99.90;;;;;;5062262;28;20381;-73
2021/12/14 00:55:54;;;;;;;27.63;13.15;;;10.20;99.90;;;;;;5054387;28;20047;-73
2021/12/14 00:58:21;;;;;;;27.58;12.77;;;10.20;99.90;;;;;;5055744;28;20024;-71
2021/12/14 01:00:56;;;;;;;25.08;12.30;;;10.30;99.90;;;;;;5066416;28;20037;-72
2021/12/14 01:03:25;;;;;;;25.05;13.40;;;10.20;99.90;;;;;;5066752;28;20033;-72
2021/12/14 01:05:51;;;;;;;23.70;10.38;;;10.20;99.90;;;;;;5072429;28;20155;-72
2021/12/14 01:08:21;;;;;;;24.63;12.07;;;10.20;99.90;;;;;;5094616;28;20397;-72
2021/12/14 01:10:53;;;;;;;26.63;12.23;;;10.20;99.90;;;;;;5094519;28;20036;-72
2021/12/14 01:13:25;;;;;;;25.17;10.75;;;10.20;99.90;;;;;;5109621;28;20024;-72
2021/12/14 01:16:13;;;;;;;21.38;11.07;;;10.20;99.90;;;;;;5094265;28;20032;-72
2021/12/14 01:24:21;;;;;;;20.50;9.88;;;10.20;99.90;;;;;;5069849;28;20040;-75
2021/12/14 01:26:48;;;;;;;25.45;11.65;;;10.20;99.90;;;;;;5099991;28;20032;-72
2021/12/14 01:29:16;;;;;;;24.70;11.57;;;10.30;99.90;;;;;;5095051;28;20076;-74
2021/12/14 01:31:43;;;;;;;24.45;12.50;;;10.20;99.90;;;;;;5099477;28;20024;-72
2021/12/14 01:34:19;;;;;;;22.88;11.55;;;10.30;99.90;;;;;;5109915;28;20391;-72
2021/12/14 01:36:51;;;;;;;21.23;11.50;;;10.20;99.90;;;;;;5099924;28;20057;-74
2021/12/14 01:42:15;;;;;;;22.40;10.93;;;10.20;99.90;;;;;;5100176;28;20073;-74
2021/12/14 01:45:01;;;;;;;21.85;10.43;;;10.20;99.90;;;;;;5111611;28;20111;-73
2021/12/14 01:47:37;;;;;;;26.13;11.45;;;10.30;99.90;;;;;;5097869;28;20023;-73
2021/12/14 01:50:07;;;;;;;20.27;9.30;;;10.20;99.90;;;;;;5083549;28;20025;-75
2021/12/14 01:52:34;;;;;;;23.42;12.40;;;10.20;99.90;;;;;;5105002;28;20023;-73
2021/12/14 01:55:10;;;;;;;23.73;11.05;;;10.20;99.90;;;;;;5096139;28;20028;-73
2021/12/14 01:57:37;;;;;;;22.17;10.27;;;10.20;99.90;;;;;;5097684;28;20119;-74
2021/12/14 02:00:09;;;;;;;22.35;11.23;;;10.20;99.90;;;;;;5101317;28;20028;-75
2021/12/14 02:02:42;;;;;;;21.20;11.07;;;10.20;99.90;;;;;;5107599;28;20114;-74
2021/12/14 02:05:30;;;;;;;19.67;10.13;;;10.20;99.90;;;;;;5097440;28;20043;-73
2021/12/14 02:07:58;;;;;;;22.80;10.55;;;10.20;99.90;;;;;;5093415;28;20391;-72
2021/12/14 02:10:26;;;;;;;21.98;10.43;;;10.20;99.90;;;;;;5084102;28;20036;-72
2021/12/14 02:12:52;;;;;;;23.50;11.60;;;10.20;99.90;;;;;;5099434;28;20088;-72
2021/12/14 02:15:22;;;;;;;24.35;12.38;;;10.20;99.90;;;;;;5103499;28;20040;-72
2021/12/14 02:17:50;;;;;;;21.08;11.40;;;10.20;99.90;;;;;;5094279;28;20089;-73
2021/12/14 02:20:22;;;;;;;22.00;11.65;;;10.20;99.90;;;;;;5092761;28;20028;-72
2021/12/14 02:22:48;;;;;;;22.63;12.15;;;10.20;99.90;;;;;;5093450;28;20028;-72
2021/12/14 02:25:14;;;;;;;23.45;12.05;;;10.20;99.90;;;;;;5102897;28;20137;-72
2021/12/14 02:27:45;;;;;;;24.65;12.35;;;10.30;99.90;;;;;;5095313;28;20054;-72
2021/12/14 02:30:16;;;;;;;26.05;12.15;;;10.20;99.90;;;;;;5091290;28;20043;-72
2021/12/14 02:32:42;;;;;;;23.00;11.18;;;10.20;99.90;;;;;;5099442;28;20024;-72
2021/12/14 02:35:14;;;;;;;26.60;13.43;;;10.20;99.90;;;;;;5088943;28;20036;-72
2021/12/14 02:37:51;;;;;;;23.85;12.13;;;10.10;99.90;;;;;;5089694;28;20024;-73
2021/12/14 02:40:32;;;;;;;25.77;13.15;;;10.10;99.90;;;;;;5090036;28;20383;-73
2021/12/14 02:43:02;;;;;;;29.90;13.48;;;10.10;99.90;;;;;;5093914;28;20461;-73
2021/12/14 02:45:27;;;;;;;22.63;12.00;;;10.00;99.90;;;;;;5074511;28;20039;-72
2021/12/14 02:47:55;;;;;;;26.17;12.68;;;10.00;99.90;;;;;;5095964;28;20353;-72
2021/12/14 02:50:21;;;;;;;29.15;13.75;;;10.00;99.90;;;;;;5092656;28;20058;-72
2021/12/14 02:52:47;;;;;;;23.33;12.82;;;10.00;99.90;;;;;;5094144;28;20050;-73
2021/12/14 02:55:18;;;;;;;28.08;13.75;;;10.10;99.90;;;;;;5104592;28;20459;-72
2021/12/14 02:57:49;;;;;;;25.65;13.00;;;10.10;99.90;;;;;;5073774;28;20395;-72
2021/12/14 03:00:29;;;;;;;27.05;14.13;;;10.10;99.90;;;;;;5093436;28;20047;-72
2021/12/14 03:02:56;;;;;;;25.67;12.43;;;10.10;99.90;;;;;;5099662;28;20030;-72
2021/12/14 03:05:27;;;;;;;31.95;16.58;;;10.00;99.90;;;;;;5093864;28;20128;-72
2021/12/14 03:08:22;;;;;;;29.50;14.93;;;10.00;99.90;;;;;;5096857;28;20070;-72
2021/12/14 03:11:00;;;;;;;29.67;16.52;;;9.90;99.90;;;;;;5093372;28;20043;-72
2021/12/14 03:13:33;;;;;;;30.55;15.43;;;9.90;99.90;;;;;;5096220;28;20061;-72
2021/12/14 03:16:02;;;;;;;;;;;9.90;99.90;;;;;;5092892;28;20024;-72
2021/12/14 03:18:36;;;;;;;32.47;15.82;;;9.90;99.90;;;;;;5089126;28;19907;-72
2021/12/14 03:21:12;;;;;;;33.60;16.70;;;9.90;99.90;;;;;;5091346;28;20032;-72
2021/12/14 03:23:45;;;;;;;33.70;18.08;;;9.90;99.90;;;;;;5092807;28;20026;-72
2021/12/14 03:26:14;;;;;;;32.88;17.15;;;9.90;99.90;;;;;;5091885;28;20035;-72
2021/12/14 03:28:40;;;;;;;31.95;17.10;;;9.90;99.90;;;;;;5094642;28;20027;-72
2021/12/14 03:31:24;;;;;;;35.10;17.48;;;9.90;99.90;;;;;;5097115;28;20666;-72
2021/12/14 03:34:07;;;;;;;34.00;17.45;;;9.90;99.90;;;;;;5098371;28;20038;-72
2021/12/14 03:36:37;;;;;;;36.97;17.40;;;10.00;99.90;;;;;;5102120;28;20027;-72
2021/12/14 03:39:17;;;;;;;34.60;17.50;;;10.00;99.90;;;;;;5093637;28;20103;-72
2021/12/14 03:41:47;;;;;;;32.15;16.73;;;10.00;99.90;;;;;;5090335;28;20016;-72
2021/12/14 03:44:23;;;;;;;33.78;17.30;;;10.00;99.90;;;;;;5095801;28;20036;-72
2021/12/14 03:46:53;;;;;;;31.02;16.13;;;10.00;99.90;;;;;;5096261;28;20056;-72
2021/12/14 03:49:22;;;;;;;33.80;18.40;;;10.00;99.90;;;;;;5099770;28;20032;-72
2021/12/14 03:51:49;;;;;;;36.20;18.35;;;10.00;99.90;;;;;;5090413;28;20035;-72
2021/12/14 03:54:19;;;;;;;35.85;18.90;;;9.90;99.90;;;;;;5100669;28;20031;-72
2021/12/14 03:56:46;;;;;;;37.08;18.52;;;9.90;99.90;;;;;;5086655;28;20116;-72
2021/12/14 03:59:12;;;;;;;37.03;18.60;;;9.90;99.90;;;;;;5100661;28;20028;-72
2021/12/14 04:01:43;;;;;;;31.30;16.85;;;9.90;99.90;;;;;;5094835;28;20040;-72
2021/12/14 04:04:19;;;;;;;34.00;17.90;;;9.90;99.90;;;;;;5100980;28;20056;-72
2021/12/14 04:06:47;;;;;;;31.70;16.77;;;9.90;99.90;;;;;;5096337;28;20118;-72
2021/12/14 04:09:15;;;;;;;27.67;15.07;;;9.90;99.90;;;;;;5101727;28;20138;-73
2021/12/14 04:11:42;;;;;;;37.33;18.08;;;9.90;99.90;;;;;;5095407;28;20467;-72
2021/12/14 04:14:08;;;;;;;37.20;18.30;;;9.90;99.90;;;;;;5077241;28;20372;-72
2021/12/14 04:16:36;;;;;;;35.90;16.83;;;9.90;99.90;;;;;;5095235;28;20020;-73
2021/12/14 04:19:08;;;;;;;37.63;16.55;;;9.90;99.90;;;;;;5097791;28;20030;-72
2021/12/14 04:21:38;;;;;;;37.65;19.63;;;9.90;99.90;;;;;;5097198;28;20380;-72
2021/12/14 04:24:07;;;;;;;33.42;16.92;;;9.90;99.90;;;;;;5094378;28;20097;-70
2021/12/14 04:26:33;;;;;;;37.60;17.80;;;9.90;99.90;;;;;;5082346;28;20028;-70
2021/12/14 04:29:02;;;;;;;36.50;17.35;;;9.90;99.90;;;;;;5100839;28;20039;-72
2021/12/14 04:31:34;;;;;;;33.80;17.88;;;9.90;99.90;;;;;;5096334;28;20032;-70
2021/12/14 04:33:59;;;;;;;34.53;17.48;;;9.90;99.90;;;;;;5106995;28;20043;-74
2021/12/14 04:36:27;;;;;;;37.63;18.88;;;9.90;99.90;;;;;;5106533;28;20028;-72
2021/12/14 04:39:00;;;;;;;32.80;16.98;;;9.90;99.90;;;;;;5101607;28;20391;-72
2021/12/14 04:52:39;;;;;;;33.50;17.33;;;10.00;99.90;;;;;;5101936;28;20557;-71
2021/12/14 04:55:09;;;;;;;40.88;19.02;;;9.90;99.90;;;;;;5076428;28;20028;-73
2021/12/14 04:57:47;;;;;;;36.25;17.52;;;9.90;99.90;;;;;;5100030;28;20024;-71
2021/12/14 05:00:30;;;;;;;38.10;17.23;;;9.90;99.90;;;;;;5076407;28;20107;-73
2021/12/14 05:02:57;;;;;;;37.95;16.85;;;9.90;99.90;;;;;;5095591;28;20024;-72
2021/12/14 05:05:40;;;;;;;37.75;17.17;;;9.90;99.90;;;;;;5088053;28;20055;-71
2021/12/14 05:10:59;;;;;;;31.13;14.43;;;9.90;99.90;;;;;;5095277;28;20120;-74
2021/12/14 05:13:52;;;;;;;36.97;17.05;;;9.90;99.90;;;;;;5086807;28;20036;-73
2021/12/14 05:16:20;;;;;;;31.95;16.33;;;9.90;99.90;;;;;;5067986;28;20427;-70
2021/12/14 05:18:47;;;;;;;34.42;16.52;;;10.00;99.90;;;;;;5101442;28;20024;-73
2021/12/14 05:21:21;;;;;;;37.13;17.25;;;10.00;99.90;;;;;;5093615;28;20028;-69
2021/12/14 05:23:46;;;;;;;37.15;17.42;;;10.00;99.90;;;;;;5103518;28;20031;-70
2021/12/14 05:26:15;;;;;;;33.65;16.30;;;10.00;99.90;;;;;;5095344;28;20376;-70
2021/12/14 05:28:42;;;;;;;35.90;17.38;;;10.00;99.90;;;;;;5097976;28;20410;-74
2021/12/14 05:31:08;;;;;;;32.83;15.98;;;10.10;99.90;;;;;;5094758;28;20032;-72
2021/12/14 05:33:35;;;;;;;36.97;19.13;;;10.10;99.90;;;;;;5094344;28;20039;-70
2021/12/14 05:36:08;;;;;;;36.40;16.40;;;10.10;99.90;;;;;;5088714;28;20027;-72
2021/12/14 05:38:48;;;;;;;36.88;18.08;;;10.10;99.90;;;;;;5095819;28;20027;-71
2021/12/14 05:44:05;;;;;;;34.22;15.82;;;10.00;99.90;;;;;;5070671;28;20035;-74
2021/12/14 05:46:31;;;;;;;35.75;15.85;;;9.90;99.90;;;;;;5093826;28;20095;-73
2021/12/14 05:49:03;;;;;;;37.35;17.13;;;9.90;99.90;;;;;;5101910;28;20032;-71
2021/12/14 05:51:31;;;;;;;38.67;17.38;;;9.90;99.90;;;;;;5093075;28;20380;-70
2021/12/14 05:53:58;;;;;;;38.58;17.50;;;9.90;99.90;;;;;;5095407;28;20383;-74
2021/12/14 05:56:26;;;;;;;37.90;17.52;;;9.90;99.90;;;;;;5098625;28;20089;-71
2021/12/14 05:58:54;;;;;;;38.75;17.08;;;9.90;99.90;;;;;;5101651;28;20058;-71
2021/12/14 06:01:24;;;;;;;36.58;18.27;;;9.90;99.90;;;;;;5096188;28;20036;-72
2021/12/14 06:03:59;;;;;;;41.75;19.10;;;9.90;99.90;;;;;;5100988;28;20056;-72
2021/12/14 06:06:30;;;;;;;38.45;16.27;;;9.90;99.90;;;;;;5100329;28;20020;-71
2021/12/14 06:09:06;;;;;;;38.65;17.88;;;9.90;99.90;;;;;;5094597;28;20411;-71
2021/12/14 06:11:33;;;;;;;37.10;16.95;;;9.90;99.90;;;;;;5094111;28;20063;-72
2021/12/14 06:13:58;;;;;;;39.58;16.58;;;9.90;99.90;;;;;;5093506;28;20031;-71
2021/12/14 06:16:30;;;;;;;36.58;15.23;;;9.90;99.90;;;;;;5096752;28;20027;-72
2021/12/14 06:19:16;;;;;;;;;;;9.90;99.90;;;;;;5098028;28;20058;-73
2021/12/14 06:21:43;;;;;;;36.20;15.23;;;9.90;99.90;;;;;;5094402;28;19908;-74
2021/12/14 06:24:10;;;;;;;40.03;17.25;;;9.90;99.90;;;;;;5097577;28;20028;-70
2021/12/14 06:26:42;;;;;;;46.92;17.50;;;9.90;99.90;;;;;;5076503;28;20456;-72
2021/12/14 06:29:18;;;;;;;40.17;17.15;;;9.90;99.90;;;;;;5079533;28;20103;-73
2021/12/14 06:31:44;;;;;;;39.00;16.77;;;10.00;99.90;;;;;;5097176;28;20055;-71
2021/12/14 06:34:15;;;;;;;39.85;17.55;;;10.00;99.90;;;;;;5093975;28;20028;-74
2021/12/14 06:37:19;;;;;;;39.10;17.42;;;10.10;99.90;;;;;;5093582;28;20032;-73
2021/12/14 06:40:09;;;;;;;36.17;16.77;;;10.10;99.90;;;;;;5090507;28;20023;-73
2021/12/14 06:42:40;;;;;;;39.22;17.92;;;10.10;99.90;;;;;;5105932;28;20028;-73
2021/12/14 06:45:16;;;;;;;35.47;14.82;;;10.10;99.90;;;;;;5093228;28;20039;-71
2021/12/14 06:47:43;;;;;;;42.40;17.52;;;10.00;99.90;;;;;;5093438;28;20032;-73
2021/12/14 06:50:12;;;;;;;41.75;18.20;;;10.00;99.90;;;;;;5094175;28;20568;-73
2021/12/14 06:52:38;;;;;;;39.97;18.17;;;10.00;99.90;;;;;;5090047;28;20085;-71
2021/12/14 06:55:07;;;;;;;46.38;18.40;;;9.90;99.90;;;;;;5102929;28;20036;-72
2021/12/14 06:57:33;;;;;;;44.10;19.25;;;9.90;99.90;;;;;;5102787;28;20479;-71
2021/12/14 07:00:00;;;;;;;42.92;17.08;;;9.90;99.90;;;;;;5093135;28;20043;-72
2021/12/14 07:02:26;;;;;;;43.42;18.60;;;10.00;99.90;;;;;;5088424;28;20110;-70
2021/12/14 07:04:52;;;;;;;43.67;19.73;;;10.00;99.90;;;;;;5095149;28;20081;-72
2021/12/14 07:07:22;;;;;;;43.35;19.10;;;10.00;99.90;;;;;;5096399;28;20032;-71
2021/12/14 07:09:55;;;;;;;43.78;19.45;;;9.90;99.90;;;;;;5095466;28;20031;-71
2021/12/14 07:12:30;;;;;;;44.80;19.42;;;9.90;99.90;;;;;;5096799;28;20115;-72
2021/12/14 07:14:58;;;;;;;50.13;19.80;;;9.90;99.90;;;;;;5096426;28;20027;-74
2021/12/14 07:17:30;;;;;;;50.35;20.25;;;9.80;99.90;;;;;;5096785;28;20026;-73
2021/12/14 07:20:15;;;;;;;;;;;9.80;99.90;;;;;;5097438;28;20118;-75
2021/12/14 07:22:46;;;;;;;39.47;15.88;;;9.80;99.90;;;;;;5081538;28;19908;-72
2021/12/14 07:25:39;;;;;;;51.17;19.48;;;9.70;99.90;;;;;;5096420;28;20028;-72
2021/12/14 07:28:06;;;;;;;47.28;19.35;;;9.70;99.90;;;;;;5096537;28;20073;-74
2021/12/14 07:30:38;;;;;;;52.53;19.77;;;9.70;99.90;;;;;;5095557;28;20043;-73
2021/12/14 07:33:11;;;;;;;51.70;18.85;;;9.70;99.90;;;;;;5096064;28;20047;-70
2021/12/14 07:35:58;;;;;;;51.83;19.85;;;9.70;99.90;;;;;;5096355;28;20028;-74
2021/12/14 07:38:32;;;;;;;51.22;19.55;;;9.70;99.90;;;;;;5096142;28;20062;-74
2021/12/14 07:41:08;;;;;;;45.75;17.42;;;9.70;99.90;;;;;;5093898;28;20515;-74
2021/12/14 07:43:43;;;;;;;48.88;19.58;;;9.70;99.90;;;;;;5094373;28;20060;-73
2021/12/14 07:46:25;;;;;;;53.22;20.73;;;9.70;99.90;;;;;;5094383;28;20047;-73
2021/12/14 07:49:24;;;;;;;55.63;19.27;;;9.70;99.90;;;;;;5087340;28;20020;-74
2021/12/14 07:51:54;;;;;;;53.05;19.95;;;9.80;99.90;;;;;;5095609;28;20392;-74
2021/12/14 07:54:33;;;;;;;52.70;20.48;;;9.80;99.90;;;;;;5095949;28;20036;-74
2021/12/14 07:57:19;;;;;;;48.88;17.98;;;9.80;99.90;;;;;;5095493;28;20059;-76
2021/12/14 07:59:51;;;;;;;60.42;19.30;;;9.80;99.90;;;;;;5094976;28;20044;-71
2021/12/14 08:02:38;;;;;;;;;;;9.80;99.90;;;;;;5096402;28;20080;-73
2021/12/14 08:05:27;;;;;;;50.42;17.65;;;9.80;99.90;;;;;;5081320;28;20003;-71
2021/12/14 08:08:07;;;;;;;57.03;19.98;;;9.70;99.90;;;;;;5069656;28;20024;-72
2021/12/14 08:10:38;;;;;;;56.72;19.73;;;9.80;99.90;;;;;;5095538;28;20046;-71
2021/12/14 08:13:13;;;;;;;51.72;19.50;;;9.80;99.90;;;;;;5094945;28;20388;-71
2021/12/14 08:15:47;;;;;;;54.53;19.85;;;9.80;99.90;;;;;;5095337;28;20369;-72
2021/12/14 08:18:32;;;;;;;53.78;20.58;;;9.80;99.90;;;;;;5077440;28;20115;-70
2021/12/14 08:21:10;;;;;;;64.43;21.92;;;9.90;99.90;;;;;;5077156;28;20077;-75
2021/12/14 08:23:40;;;;;;;62.55;19.67;;;9.90;99.90;;;;;;5093828;28;20111;-74
2021/12/14 08:26:05;;;;;;;54.20;18.60;;;9.90;99.90;;;;;;5093755;28;20039;-74
2021/12/14 08:28:32;;;;;;;52.80;18.38;;;9.90;99.90;;;;;;5094300;28;20426;-72
2021/12/14 08:31:05;;;;;;;51.10;18.90;;;9.90;99.90;;;;;;5093679;28;20162;-75
2021/12/14 08:33:32;;;;;;;50.38;18.92;;;10.00;99.90;;;;;;5095208;28;20107;-73
2021/12/14 08:36:02;;;;;;;38.22;16.25;;;10.00;99.90;;;;;;5077377;28;20220;-74
2021/12/14 08:38:31;;;;;;;49.08;18.63;;;10.00;99.90;;;;;;5095562;28;20551;-75
2021/12/14 08:41:08;;;;;;;50.53;19.55;;;10.00;99.90;;;;;;5094899;28;20028;-71
2021/12/14 08:43:35;;;;;;;55.22;20.25;;;10.00;99.90;;;;;;5094362;28;20050;-70
2021/12/14 08:46:05;;;;;;;53.95;19.63;;;10.10;99.90;;;;;;5076692;28;20082;-71
2021/12/14 08:48:59;;;;;;;57.40;20.05;;;10.10;99.90;;;;;;5076637;28;20367;-74
2021/12/14 08:51:32;;;;;;;49.28;18.95;;;10.10;99.90;;;;;;5080256;28;20032;-71
2021/12/14 08:54:02;;;;;;;41.35;18.85;;;10.10;99.90;;;;;;5094396;28;20024;-71
2021/12/14 08:56:31;;;;;;;53.30;18.75;;;10.10;99.90;;;;;;5091197;28;20036;-73
2021/12/14 08:58:57;;;;;;;55.25;19.63;;;10.10;99.90;;;;;;5094253;28;20031;-70
2021/12/14 09:01:29;;;;;;;54.13;19.02;;;10.00;99.90;;;;;;5084549;28;20032;-73
2021/12/14 09:04:04;;;;;;;36.92;14.20;;;10.10;99.90;;;;;;5094302;28;20476;-73
2021/12/14 09:06:38;;;;;;;43.83;17.70;;;10.10;99.90;;;;;;5094055;28;20054;-74
2021/12/14 09:09:08;;;;;;;50.78;18.55;;;10.10;99.90;;;;;;5075510;28;20451;-72
2021/12/14 09:11:38;;;;;;;44.17;17.17;;;10.10;99.90;;;;;;5092751;28;20111;-74
2021/12/14 09:14:09;;;;;;;46.65;17.60;;;10.10;99.90;;;;;;5093889;28;20487;-74
2021/12/14 09:16:36;;;;;;;37.15;15.48;;;10.10;99.90;;;;;;5094978;28;20027;-71
2021/12/14 09:19:19;;;;;;;45.00;17.50;;;10.20;99.90;;;;;;5111410;28;20399;-73
2021/12/14 09:21:51;;;;;;;40.13;13.20;;;10.20;99.90;;;;;;5114665;28;20483;-71
2021/12/14 09:24:20;;;;;;;44.25;15.75;;;10.20;99.90;;;;;;5114943;28;20097;-73
2021/12/14 09:26:50;;;;;;;36.85;15.63;;;10.20;99.90;;;;;;5113970;28;20036;-72
2021/12/14 09:29:18;;;;;;;43.25;16.80;;;10.30;99.90;;;;;;5114302;28;20064;-72
2021/12/14 09:31:48;;;;;;;50.83;16.02;;;10.30;99.90;;;;;;5093051;28;20032;-74
2021/12/14 09:34:16;;;;;;;41.58;14.95;;;10.30;99.90;;;;;;5094727;28;20464;-75
2021/12/14 09:36:43;;;;;;;41.03;16.25;;;10.30;99.90;;;;;;5094480;28;20028;-75
2021/12/14 09:39:14;;;;;;;38.45;15.95;;;10.40;99.90;;;;;;5094480;28;20028;-71
2021/12/14 09:41:43;;;;;;;38.15;15.63;;;10.40;99.90;;;;;;5093900;28;20138;-73
2021/12/14 09:44:12;;;;;;;42.33;16.25;;;10.40;99.90;;;;;;5093765;28;20039;-75
2021/12/14 09:46:38;;;;;;;47.50;18.15;;;10.40;99.90;;;;;;5109856;28;20103;-75
2021/12/14 09:49:08;;;;;;;39.92;14.70;;;10.40;99.90;;;;;;5093825;28;20150;-71
2021/12/14 09:51:43;;;;;;;38.97;15.40;;;10.40;99.90;;;;;;5093440;28;20414;-73
2021/12/14 09:54:12;;;;;;;44.75;16.23;;;10.40;99.90;;;;;;5092877;28;20116;-74
2021/12/14 09:57:16;;;;;;;45.28;17.17;;;10.40;99.90;;;;;;5093276;28;20032;-76
2021/12/14 09:59:42;;;;;;;41.30;15.68;;;10.40;99.90;;;;;;5084441;28;20121;-73
2021/12/14 10:02:19;;;;;;;33.00;14.75;;;10.50;99.90;;;;;;5075234;28;20024;-72
2021/12/14 10:04:53;;;;;;;37.67;14.40;;;10.50;99.90;;;;;;5093637;28;20517;-73
2021/12/14 10:07:22;;;;;;;37.60;14.82;;;10.50;99.90;;;;;;5092778;28;20480;-71
2021/12/14 10:09:50;;;;;;;37.47;13.65;;;10.50;99.90;;;;;;5093026;28;20055;-71
2021/12/14 10:14:51;;;;;;;35.03;13.85;;;10.60;99.90;;;;;;5093200;28;20028;-72
2021/12/14 10:17:19;;;;;;;39.90;14.23;;;10.60;99.90;;;;;;5093198;28;20051;-74
2021/12/14 10:19:46;;;;;;;35.47;13.35;;;10.60;99.90;;;;;;5090268;28;20024;-74
2021/12/14 10:22:23;;;;;;;38.08;13.10;;;10.70;99.90;;;;;;5092634;28;20063;-71
2021/12/14 10:24:51;;;;;;;40.70;13.73;;;10.70;99.90;;;;;;5093169;28;20055;-75
2021/12/14 10:27:19;;;;;;;33.90;12.93;;;10.70;99.90;;;;;;5092964;28;20028;-71
2021/12/14 10:29:45;;;;;;;36.55;13.55;;;10.70;99.90;;;;;;5108528;28;20074;-71
2021/12/14 10:32:24;;;;;;;41.03;14.48;;;10.70;99.90;;;;;;5093367;28;20082;-72
2021/12/14 10:34:54;;;;;;;36.90;13.30;;;10.70;99.90;;;;;;5093382;28;20380;-71
2021/12/14 10:37:27;;;;;;;38.95;13.95;;;10.70;99.90;;;;;;5091100;28;20468;-71
2021/12/14 10:43:04;;;;;;;29.83;12.73;;;10.70;99.90;;;;;;5075906;28;20093;-71
2021/12/14 10:45:29;;;;;;;33.55;11.98;;;10.70;99.90;;;;;;5088664;28;20388;-71
2021/12/14 10:47:56;;;;;;;36.42;13.32;;;10.70;99.90;;;;;;5094484;28;20290;-71
2021/12/14 10:50:25;;;;;;;35.38;14.13;;;10.70;99.90;;;;;;5091306;28;20056;-72
2021/12/14 10:52:51;;;;;;;32.88;13.20;;;10.70;99.90;;;;;;5091062;28;20161;-71
2021/12/14 10:55:24;;;;;;;32.38;13.50;;;10.70;99.90;;;;;;5092280;28;20028;-71
2021/12/14 10:57:52;;;;;;;34.83;13.18;;;10.70;99.90;;;;;;5092845;28;20012;-71
2021/12/14 11:00:30;;;;;;;35.03;12.93;;;10.70;99.90;;;;;;5092627;28;20036;-72
2021/12/14 11:03:06;;;;;;;36.35;12.60;;;10.70;99.90;;;;;;5092863;28;20039;-72
2021/12/14 11:05:34;;;;;;;39.45;14.25;;;10.70;99.90;;;;;;5092549;28;20058;-71
2021/12/14 11:08:00;;;;;;;36.35;13.90;;;10.70;99.90;;;;;;5092673;28;20028;-72
2021/12/14 11:10:38;;;;;;;31.58;12.68;;;10.70;99.90;;;;;;5092675;28;20024;-72
2021/12/14 11:13:08;;;;;;;32.10;12.25;;;10.70;99.90;;;;;;5092769;28;20027;-72
2021/12/14 11:15:40;;;;;;;34.78;13.15;;;10.70;99.90;;;;;;5093015;28;20076;-73
2021/12/14 11:18:12;;;;;;;28.83;11.23;;;10.70;99.90;;;;;;5091616;28;20031;-73
2021/12/14 11:20:46;;;;;;;27.90;10.77;;;10.70;99.90;;;;;;5091862;28;20154;-73
2021/12/14 11:23:16;;;;;;;30.00;10.93;;;10.70;99.90;;;;;;5092809;28;20032;-73
2021/12/14 11:25:50;;;;;;;31.73;10.38;;;10.70;99.90;;;;;;5093051;28;20024;-72
2021/12/14 11:28:26;;;;;;;28.45;11.43;;;10.70;99.90;;;;;;5092718;28;20040;-71
2021/12/14 11:30:57;;;;;;;26.52;9.77;;;10.70;99.90;;;;;;5092344;28;20133;-74
2021/12/14 11:33:29;;;;;;;29.92;11.05;;;10.80;99.90;;;;;;5092998;28;20099;-75
2021/12/14 11:35:58;;;;;;;33.28;11.10;;;10.80;99.90;;;;;;5090831;28;20107;-72
2021/12/14 11:38:48;;;;;;;26.23;10.82;;;10.80;99.90;;;;;;5092236;28;20427;-72
2021/12/14 11:41:32;;;;;;;28.58;11.05;;;10.80;99.90;;;;;;5093110;28;20031;-73
2021/12/14 11:44:13;;;;;;;31.40;11.55;;;10.80;99.90;;;;;;5092520;28;20028;-73
2021/12/14 11:50:05;;;;;;;27.95;11.05;;;10.80;99.90;;;;;;5095339;28;20050;-70
2021/12/14 11:52:51;;;;;;;27.33;10.70;;;10.80;99.90;;;;;;5095983;28;20028;-70
2021/12/14 11:55:55;;;;;;;31.63;11.07;;;10.80;99.90;;;;;;5095809;28;20103;-71
2021/12/14 11:58:26;;;;;;;28.95;10.52;;;10.80;99.90;;;;;;5096452;28;20028;-72
2021/12/14 12:01:03;;;;;;;30.83;10.50;;;10.80;99.90;;;;;;5096166;28;20024;-73
2021/12/14 12:03:31;;;;;;;27.02;10.43;;;10.80;99.90;;;;;;5094858;28;20410;-74
2021/12/14 12:06:13;;;;;;;26.55;10.85;;;10.80;99.90;;;;;;5096289;28;20051;-74
2021/12/14 12:11:37;;;;;;;25.85;9.95;;;10.90;99.90;;;;;;5096160;28;20080;-73
2021/12/14 12:14:21;;;;;;;22.08;7.97;;;10.90;99.90;;;;;;5094855;28;20438;-71
2021/12/14 12:16:47;;;;;;;22.65;9.68;;;10.90;99.90;;;;;;5096349;28;20081;-76
2021/12/14 12:19:18;;;;;;;27.50;8.60;;;10.90;99.90;;;;;;5095737;28;20023;-73
2021/12/14 12:21:46;;;;;;;29.73;10.40;;;11.00;99.90;;;;;;5095883;28;20028;-73
2021/12/14 12:24:38;;;;;;;21.23;8.35;;;11.00;99.90;;;;;;5095649;28;20050;-74
2021/12/14 12:27:16;;;;;;;23.25;8.52;;;11.00;99.90;;;;;;5094698;28;20032;-74
2021/12/14 12:29:42;;;;;;;24.50;8.27;;;10.90;99.90;;;;;;5096217;28;20024;-74
2021/12/14 12:32:18;;;;;;;30.95;9.65;;;10.90;99.90;;;;;;5095554;28;20070;-73
2021/12/14 12:34:44;;;;;;;22.38;9.93;;;10.90;99.90;;;;;;5095338;28;20028;-72
2021/12/14 12:37:13;;;;;;;20.48;8.45;;;10.90;99.90;;;;;;5095584;28;20031;-72
2021/12/14 12:39:49;;;;;;;22.83;8.95;;;10.90;99.90;;;;;;5095593;28;20038;-72
2021/12/14 12:42:16;;;;;;;27.13;8.32;;;10.90;99.90;;;;;;5095273;28;20023;-71
2021/12/14 12:44:43;;;;;;;28.70;8.35;;;11.00;99.90;;;;;;5095355;28;20028;-71
2021/12/14 12:47:20;;;;;;;24.90;8.35;;;10.90;99.90;;;;;;5095104;28;20031;-74
2021/12/14 12:49:55;;;;;;;29.48;9.05;;;11.00;99.90;;;;;;5095328;28;20035;-71
2021/12/14 12:52:32;;;;;;;31.48;8.60;;;11.00;99.90;;;;;;5093902;28;20472;-71
2021/12/14 12:55:09;;;;;;;19.02;7.25;;;11.00;99.90;;;;;;5095225;28;20499;-71
2021/12/14 12:57:39;;;;;;;23.15;7.75;;;11.10;99.90;;;;;;5095019;28;20107;-70
2021/12/14 13:00:13;;;;;;;19.02;7.53;;;11.20;99.90;;;;;;5092892;28;20052;-72
2021/12/14 13:02:57;;;;;;;23.20;8.20;;;11.20;99.90;;;;;;5095457;28;20027;-73
2021/12/14 13:05:26;;;;;;;23.40;7.22;;;11.20;99.90;;;;;;5095128;28;20080;-74
2021/12/14 13:08:09;;;;;;;22.02;7.50;;;11.20;99.90;;;;;;5094900;28;20103;-73
2021/12/14 13:11:03;;;;;;;19.05;6.30;;;11.20;99.90;;;;;;5093721;28;20028;-71
2021/12/14 13:13:36;;;;;;;21.52;7.10;;;11.20;99.90;;;;;;5094678;28;20061;-70
2021/12/14 13:16:07;;;;;;;20.88;7.07;;;11.20;99.90;;;;;;5094728;28;20024;-72
2021/12/14 13:18:38;;;;;;;17.35;5.60;;;11.20;99.90;;;;;;5094382;28;20035;-74
2021/12/14 13:21:25;;;;;;;17.77;5.72;;;11.20;99.90;;;;;;5094643;28;20027;-74
2021/12/14 13:24:15;;;;;;;25.25;6.57;;;11.20;99.90;;;;;;5094553;28;20496;-72
2021/12/14 13:27:07;;;;;;;23.58;7.25;;;11.20;99.90;;;;;;5094524;28;20073;-72
2021/12/14 13:29:49;;;;;;;21.58;7.18;;;11.20;99.90;;;;;;5094564;28;20073;-73
2021/12/14 13:32:21;;;;;;;25.50;6.90;;;11.10;99.90;;;;;;5094937;28;20047;-72
2021/12/14 13:34:47;;;;;;;22.48;6.50;;;11.10;99.90;;;;;;5093884;28;20118;-73
2021/12/14 13:37:19;;;;;;;17.90;6.40;;;11.10;99.90;;;;;;5093908;28;20031;-71
2021/12/14 13:39:47;;;;;;;;;;;11.10;99.90;;;;;;5093013;28;20036;-74
2021/12/14 13:42:12;;;;;;;20.23;6.95;;;11.10;99.90;;;;;;5093645;28;19908;-73